Terminal Aerodrome Forecast
Issued by NWS

Home | Current Version | Previous Version | Text Only | Print | Product List | Glossary On
Versions: 1 2 3 4 5 6 7 8 9 10 11 12 13 14 15 16 17 18
000
FTUS46 KMTR 011720
TAFOAK
TAF
KOAK 011720Z 0118/0224 26010KT P6SM SCT015 SCT020 SCT150
     FM012100 27016KT P6SM FEW015 FEW150
     FM020200 28014KT P6SM SCT015
     FM020400 28012KT P6SM BKN012
     FM020600 28011KT P6SM OVC008
     FM021800 26008KT P6SM SCT012
     FM022100 27015KT P6SM FEW012=

USA.gov is the U.S. government's official web portal to all federal, state and local government web resources and services.